Time;durP1;ratioP1;P1;durP2;ratioP2;P2;SDS_P1;SDS_P2;PMS_P1;PMS_P2;Temp;Humidity;BMP_temperature;BMP_pressure;BME280_temperature;BME280_humidity;BME280_pressure;Samples;Min_cycle;Max_cycle;Signal;HPM_P1;HPM_P2
2024/01/19 00:02:21;;;;;;;52.28;22.50;;;;;;;;;;5037095;28;20040;-72
2024/01/19 00:04:47;;;;;;;49.38;21.67;;;;;;;;;;5038138;28;20025;-72
2024/01/19 00:07:14;;;;;;;53.53;21.40;;;;;;;;;;5040422;28;20031;-72
2024/01/19 00:09:40;;;;;;;44.38;21.70;;;;;;;;;;5039405;28;20029;-72
2024/01/19 00:12:06;;;;;;;45.50;21.38;;;;;;;;;;5040226;28;20021;-72
2024/01/19 00:14:33;;;;;;;46.15;22.95;;;;;;;;;;5037776;28;20101;-72
2024/01/19 00:17:00;;;;;;;43.05;20.83;;;;;;;;;;5037863;28;20017;-72
2024/01/19 00:19:26;;;;;;;44.45;20.83;;;;;;;;;;5039648;28;20017;-72
2024/01/19 00:21:52;;;;;;;46.78;22.25;;;;;;;;;;5042882;28;20428;-72
2024/01/19 00:24:18;;;;;;;45.45;22.45;;;;;;;;;;5038689;28;20495;-72
2024/01/19 00:26:46;;;;;;;41.38;20.85;;;;;;;;;;5036906;28;20023;-72
2024/01/19 00:29:12;;;;;;;41.78;23.05;;;;;;;;;;5041030;28;20021;-72
2024/01/19 00:31:43;;;;;;;50.83;22.20;;;;;;;;;;5037336;28;20486;-72
2024/01/19 00:34:09;;;;;;;47.28;22.27;;;;;;;;;;5039885;28;20490;-72
2024/01/19 00:36:36;;;;;;;50.22;23.00;;;;;;;;;;5037145;28;20462;-72
2024/01/19 00:39:04;;;;;;;44.42;20.98;;;;;;;;;;5037912;28;20079;-72
2024/01/19 00:41:29;;;;;;;51.45;22.45;;;;;;;;;;5042546;28;20017;-71
2024/01/19 00:43:57;;;;;;;37.95;20.48;;;;;;;;;;5048598;28;20048;-73
2024/01/19 00:46:25;;;;;;;43.63;20.30;;;;;;;;;;5041109;28;20075;-74
2024/01/19 00:48:51;;;;;;;43.53;21.73;;;;;;;;;;5038150;28;20510;-73
2024/01/19 00:51:17;;;;;;;43.17;21.08;;;;;;;;;;5034084;28;20025;-74
2024/01/19 00:53:43;;;;;;;45.65;22.13;;;;;;;;;;5038880;28;20097;-73
2024/01/19 00:56:09;;;;;;;41.90;20.13;;;;;;;;;;5044326;28;20032;-72
2024/01/19 00:58:40;;;;;;;39.90;19.58;;;;;;;;;;5043238;28;20026;-72
2024/01/19 01:01:06;;;;;;;43.47;19.30;;;;;;;;;;5031725;28;20128;-72
2024/01/19 01:03:32;;;;;;;42.88;20.38;;;;;;;;;;5042948;28;20394;-73
2024/01/19 01:06:01;;;;;;;39.88;20.00;;;;;;;;;;5044090;28;20492;-73
2024/01/19 01:08:27;;;;;;;41.38;20.30;;;;;;;;;;5039356;28;20079;-73
2024/01/19 01:10:54;;;;;;;38.88;19.35;;;;;;;;;;5039102;28;20025;-72
2024/01/19 01:13:20;;;;;;;40.22;19.67;;;;;;;;;;5039550;28;20031;-73
2024/01/19 01:15:47;;;;;;;35.22;18.90;;;;;;;;;;5042770;28;20056;-73
2024/01/19 01:18:14;;;;;;;39.03;19.35;;;;;;;;;;5037962;28;20028;-72
2024/01/19 01:20:43;;;;;;;42.70;20.20;;;;;;;;;;5043666;28;20381;-73
2024/01/19 01:23:10;;;;;;;39.33;19.00;;;;;;;;;;5053776;28;20080;-72
2024/01/19 01:25:36;;;;;;;34.92;18.58;;;;;;;;;;5040205;28;20748;-72
2024/01/19 01:28:02;;;;;;;41.45;18.60;;;;;;;;;;5045439;28;20052;-72
2024/01/19 01:30:28;;;;;;;36.00;17.65;;;;;;;;;;5043425;28;20032;-72
2024/01/19 01:32:55;;;;;;;43.63;19.45;;;;;;;;;;5040045;28;20034;-72
2024/01/19 01:35:22;;;;;;;35.83;18.88;;;;;;;;;;5035744;28;20025;-72
2024/01/19 01:37:48;;;;;;;40.75;19.70;;;;;;;;;;5041261;28;20023;-72
2024/01/19 01:40:14;;;;;;;39.05;19.20;;;;;;;;;;5055172;28;20575;-72
2024/01/19 01:42:41;;;;;;;41.83;19.55;;;;;;;;;;5044387;28;20025;-72
2024/01/19 01:45:08;;;;;;;38.17;18.90;;;;;;;;;;5033597;28;20053;-73
2024/01/19 01:47:34;;;;;;;35.97;18.35;;;;;;;;;;5044413;28;20021;-72
2024/01/19 01:50:01;;;;;;;36.15;19.92;;;;;;;;;;5049343;28;20032;-73
2024/01/19 01:52:29;;;;;;;39.13;18.95;;;;;;;;;;5032468;28;20367;-73
2024/01/19 01:54:55;;;;;;;39.35;19.02;;;;;;;;;;5045919;28;20079;-72
2024/01/19 01:57:23;;;;;;;39.75;19.90;;;;;;;;;;5048548;28;20490;-72
2024/01/19 01:59:49;;;;;;;36.60;18.02;;;;;;;;;;5051596;28;20024;-73
2024/01/19 02:02:15;;;;;;;37.92;18.25;;;;;;;;;;5047822;28;20131;-73
2024/01/19 02:04:41;;;;;;;33.28;18.35;;;;;;;;;;5044817;28;20189;-72
2024/01/19 02:07:08;;;;;;;42.45;19.50;;;;;;;;;;5039357;28;20026;-74
2024/01/19 02:09:34;;;;;;;41.25;20.85;;;;;;;;;;5037489;28;20032;-73
2024/01/19 02:12:00;;;;;;;39.13;19.45;;;;;;;;;;5037377;28;20435;-73
2024/01/19 02:14:26;;;;;;;37.70;19.90;;;;;;;;;;5043113;28;20055;-73
2024/01/19 02:16:52;;;;;;;36.83;18.27;;;;;;;;;;5036218;28;20057;-71
2024/01/19 02:19:18;;;;;;;40.03;19.63;;;;;;;;;;5016077;28;20376;-72
2024/01/19 02:21:46;;;;;;;37.95;18.42;;;;;;;;;;5045949;28;20036;-72
2024/01/19 02:24:13;;;;;;;38.35;19.35;;;;;;;;;;5042939;28;20041;-73
2024/01/19 02:26:39;;;;;;;36.13;19.60;;;;;;;;;;5042914;28;20041;-72
2024/01/19 02:29:05;;;;;;;42.03;19.55;;;;;;;;;;5042753;28;20040;-72
2024/01/19 02:31:31;;;;;;;45.97;20.08;;;;;;;;;;5040668;28;20352;-73
2024/01/19 02:33:58;;;;;;;39.33;19.30;;;;;;;;;;5038402;28;20025;-71
2024/01/19 02:36:26;;;;;;;35.67;18.38;;;;;;;;;;5038690;28;20017;-72
2024/01/19 02:38:52;;;;;;;36.25;19.38;;;;;;;;;;5045311;28;20029;-73
2024/01/19 02:41:18;;;;;;;37.60;18.17;;;;;;;;;;5047541;28;20025;-72
2024/01/19 02:43:45;;;;;;;34.88;17.27;;;;;;;;;;5034905;28;20037;-73
2024/01/19 02:46:15;;;;;;;35.80;17.00;;;;;;;;;;5041361;28;20425;-72
2024/01/19 02:48:42;;;;;;;34.15;17.35;;;;;;;;;;5041744;28;20679;-72
2024/01/19 02:51:08;;;;;;;37.63;17.27;;;;;;;;;;5036561;28;20040;-73
2024/01/19 02:53:34;;;;;;;36.20;18.50;;;;;;;;;;5039582;28;20080;-72
2024/01/19 02:56:01;;;;;;;38.78;18.65;;;;;;;;;;5045250;28;20010;-73
2024/01/19 02:58:28;;;;;;;39.72;20.65;;;;;;;;;;5038104;28;20029;-73
2024/01/19 03:00:54;;;;;;;43.13;19.23;;;;;;;;;;5032721;28;20562;-72
2024/01/19 03:03:20;;;;;;;37.10;19.08;;;;;;;;;;5042393;28;20026;-72
2024/01/19 03:05:46;;;;;;;37.67;18.80;;;;;;;;;;5043376;28;20065;-72
2024/01/19 03:08:12;;;;;;;44.08;19.85;;;;;;;;;;5038736;28;20057;-73
2024/01/19 03:10:38;;;;;;;36.00;18.90;;;;;;;;;;5041383;28;20037;-72
2024/01/19 03:13:05;;;;;;;36.60;19.70;;;;;;;;;;5041561;28;20037;-72
2024/01/19 03:15:31;;;;;;;34.33;18.08;;;;;;;;;;5047301;28;20082;-72
2024/01/19 03:17:57;;;;;;;36.17;19.80;;;;;;;;;;5037571;28;20013;-71
2024/01/19 03:20:23;;;;;;;40.40;19.67;;;;;;;;;;5039984;28;20474;-71
2024/01/19 03:22:49;;;;;;;49.65;20.88;;;;;;;;;;5043437;28;20024;-72
2024/01/19 03:25:15;;;;;;;38.08;19.55;;;;;;;;;;5044994;28;20060;-72
2024/01/19 03:27:41;;;;;;;41.90;21.58;;;;;;;;;;5035607;28;20385;-73
2024/01/19 03:30:08;;;;;;;48.67;22.08;;;;;;;;;;5044511;28;20444;-72
2024/01/19 03:32:34;;;;;;;38.53;20.40;;;;;;;;;;5039053;28;20033;-72
2024/01/19 03:35:00;;;;;;;42.80;20.70;;;;;;;;;;5034438;28;20022;-72
2024/01/19 03:37:27;;;;;;;38.10;20.42;;;;;;;;;;5033859;28;20091;-71
2024/01/19 03:39:54;;;;;;;44.22;21.63;;;;;;;;;;5036988;28;20017;-71
2024/01/19 03:42:20;;;;;;;43.28;21.73;;;;;;;;;;5049785;28;20390;-71
2024/01/19 03:44:46;;;;;;;36.58;18.23;;;;;;;;;;5038743;28;20474;-71
2024/01/19 03:47:12;;;;;;;37.05;20.45;;;;;;;;;;5040973;28;20040;-72
2024/01/19 03:49:38;;;;;;;41.42;20.67;;;;;;;;;;5038419;28;20056;-72
2024/01/19 03:52:05;;;;;;;40.25;19.70;;;;;;;;;;5046577;28;20026;-72
2024/01/19 03:54:32;;;;;;;39.55;19.60;;;;;;;;;;5042615;28;20578;-72
2024/01/19 03:56:59;;;;;;;49.35;21.60;;;;;;;;;;5045160;28;20029;-72
2024/01/19 03:59:26;;;;;;;36.92;19.65;;;;;;;;;;5040803;28;20025;-72
2024/01/19 04:01:54;;;;;;;43.63;20.80;;;;;;;;;;5035406;28;20059;-71
2024/01/19 04:04:20;;;;;;;44.95;20.40;;;;;;;;;;5045436;28;20055;-72
2024/01/19 04:06:46;;;;;;;36.58;18.63;;;;;;;;;;5037096;28;20045;-74
2024/01/19 04:09:15;;;;;;;39.40;19.52;;;;;;;;;;5033316;28;20029;-71
2024/01/19 04:11:42;;;;;;;37.20;18.98;;;;;;;;;;5027904;28;20049;-71
2024/01/19 04:14:08;;;;;;;38.55;18.52;;;;;;;;;;5043318;28;20512;-71
2024/01/19 04:16:34;;;;;;;39.95;18.50;;;;;;;;;;5038857;28;20470;-72
2024/01/19 04:19:00;;;;;;;41.95;19.05;;;;;;;;;;5049620;28;20025;-72
2024/01/19 04:21:26;;;;;;;38.75;17.65;;;;;;;;;;5041617;28;20037;-72
2024/01/19 04:23:53;;;;;;;35.90;17.60;;;;;;;;;;5039247;28;20037;-71
2024/01/19 04:26:19;;;;;;;38.08;19.40;;;;;;;;;;5032888;28;20068;-71
2024/01/19 04:28:45;;;;;;;40.33;19.35;;;;;;;;;;5039318;28;20525;-71
2024/01/19 04:31:11;;;;;;;36.47;19.10;;;;;;;;;;5040324;28;20084;-72
2024/01/19 04:33:37;;;;;;;44.35;19.55;;;;;;;;;;5034875;28;20565;-72
2024/01/19 04:36:03;;;;;;;42.35;20.90;;;;;;;;;;5036230;28;20639;-72
2024/01/19 04:38:30;;;;;;;39.58;18.35;;;;;;;;;;5044044;28;20021;-72
2024/01/19 04:40:56;;;;;;;43.20;20.85;;;;;;;;;;5043247;28;20021;-72
2024/01/19 04:43:23;;;;;;;38.15;19.65;;;;;;;;;;5035781;28;20060;-72
2024/01/19 04:45:49;;;;;;;35.83;19.50;;;;;;;;;;5046315;28;20024;-71
2024/01/19 04:48:15;;;;;;;42.67;18.63;;;;;;;;;;5042625;28;20025;-70
2024/01/19 04:50:41;;;;;;;41.72;19.50;;;;;;;;;;5036457;28;20645;-72
2024/01/19 04:53:07;;;;;;;42.08;20.60;;;;;;;;;;5039854;28;20068;-71
2024/01/19 04:55:35;;;;;;;38.30;20.15;;;;;;;;;;5043163;28;20097;-71
2024/01/19 04:58:01;;;;;;;40.90;21.40;;;;;;;;;;5047911;28;20386;-71
2024/01/19 05:00:27;;;;;;;41.65;21.77;;;;;;;;;;5030637;28;20064;-71
2024/01/19 05:02:53;;;;;;;45.25;22.33;;;;;;;;;;5040605;28;20477;-71
2024/01/19 05:05:19;;;;;;;49.72;23.35;;;;;;;;;;5038234;28;20498;-71
2024/01/19 05:07:45;;;;;;;43.65;23.67;;;;;;;;;;5035739;28;20867;-71
2024/01/19 05:10:11;;;;;;;54.47;24.40;;;;;;;;;;5036526;28;20497;-71
2024/01/19 05:12:37;;;;;;;52.28;25.80;;;;;;;;;;5041883;28;20414;-72
2024/01/19 05:15:03;;;;;;;48.22;23.85;;;;;;;;;;5035827;28;20425;-72
2024/01/19 05:17:29;;;;;;;52.33;24.60;;;;;;;;;;5031554;28;20022;-72
2024/01/19 05:19:57;;;;;;;49.75;24.48;;;;;;;;;;5035237;28;20335;-72
2024/01/19 05:22:23;;;;;;;57.00;24.30;;;;;;;;;;5041746;28;20016;-71
2024/01/19 05:24:50;;;;;;;58.45;26.77;;;;;;;;;;5032663;28;20049;-71
2024/01/19 05:27:17;;;;;;;58.13;26.52;;;;;;;;;;5028468;28;20032;-72
2024/01/19 05:29:43;;;;;;;51.03;24.55;;;;;;;;;;5040266;28;20307;-73
2024/01/19 05:32:09;;;;;;;51.85;26.00;;;;;;;;;;5039161;28;20388;-72
2024/01/19 05:34:35;;;;;;;46.00;21.85;;;;;;;;;;5029715;28;20025;-73
2024/01/19 05:37:01;;;;;;;42.80;21.30;;;;;;;;;;5039485;28;20470;-73
2024/01/19 05:39:27;;;;;;;48.20;22.38;;;;;;;;;;5036641;28;20387;-72
2024/01/19 05:41:53;;;;;;;46.25;22.60;;;;;;;;;;5044900;28;20021;-72
2024/01/19 05:44:20;;;;;;;46.30;23.77;;;;;;;;;;5028703;28;20080;-72
2024/01/19 05:46:46;;;;;;;47.63;23.02;;;;;;;;;;5040182;28;20037;-72
2024/01/19 05:49:14;;;;;;;50.85;22.58;;;;;;;;;;5042498;28;20651;-73
2024/01/19 05:51:43;;;;;;;39.83;21.80;;;;;;;;;;5034036;28;20022;-72
2024/01/19 05:54:11;;;;;;;48.90;23.58;;;;;;;;;;5037887;28;20049;-73
2024/01/19 05:56:37;;;;;;;43.45;23.00;;;;;;;;;;5042776;28;20108;-72
2024/01/19 05:59:03;;;;;;;39.83;20.00;;;;;;;;;;5042440;28;20478;-72
2024/01/19 06:01:29;;;;;;;40.17;21.77;;;;;;;;;;5036817;28;20108;-71
2024/01/19 06:03:58;;;;;;;44.03;19.75;;;;;;;;;;5047806;28;20529;-71
2024/01/19 06:06:25;;;;;;;43.23;20.97;;;;;;;;;;5042412;28;20043;-71
2024/01/19 06:08:51;;;;;;;44.55;22.02;;;;;;;;;;5059965;28;20024;-70
2024/01/19 06:11:24;;;;;;;40.22;21.50;;;;;;;;;;5059210;28;20029;-70
2024/01/19 06:13:51;;;;;;;38.60;20.55;;;;;;;;;;5058410;28;20428;-70
2024/01/19 06:16:17;;;;;;;37.60;19.05;;;;;;;;;;5054343;28;20032;-70
2024/01/19 06:18:43;;;;;;;41.25;20.45;;;;;;;;;;5056591;28;20327;-71
2024/01/19 06:21:11;;;;;;;40.25;19.67;;;;;;;;;;5057755;28;20032;-71
2024/01/19 06:23:38;;;;;;;39.78;19.40;;;;;;;;;;5043978;28;20407;-70
2024/01/19 06:26:13;;;;;;;38.47;18.88;;;;;;;;;;5042996;28;20036;-70
2024/01/19 06:28:41;;;;;;;38.47;17.73;;;;;;;;;;5047639;28;20389;-71
2024/01/19 06:31:08;;;;;;;37.65;17.92;;;;;;;;;;5040758;28;20029;-71
2024/01/19 06:33:34;;;;;;;38.97;18.33;;;;;;;;;;5036436;28;20029;-71
2024/01/19 06:36:00;;;;;;;39.38;21.45;;;;;;;;;;5037115;28;20503;-71
2024/01/19 06:38:28;;;;;;;41.08;20.15;;;;;;;;;;5045037;28;20397;-71
2024/01/19 06:40:54;;;;;;;34.55;17.67;;;;;;;;;;5044270;28;20045;-70
2024/01/19 06:43:20;;;;;;;36.83;17.88;;;;;;;;;;5057232;28;20119;-70
2024/01/19 06:45:46;;;;;;;36.35;17.10;;;;;;;;;;5035469;28;20107;-71
2024/01/19 06:48:13;;;;;;;33.53;16.58;;;;;;;;;;5050150;28;20033;-71
2024/01/19 06:50:39;;;;;;;34.13;19.38;;;;;;;;;;5037390;28;20025;-71
2024/01/19 06:53:06;;;;;;;39.55;19.48;;;;;;;;;;5042085;28;20047;-71
2024/01/19 06:55:32;;;;;;;42.53;18.23;;;;;;;;;;5043617;28;20028;-71
2024/01/19 06:57:58;;;;;;;40.00;19.48;;;;;;;;;;5049612;28;20031;-71
2024/01/19 07:00:25;;;;;;;35.83;20.08;;;;;;;;;;5043034;28;20100;-71
2024/01/19 07:02:51;;;;;;;34.80;18.15;;;;;;;;;;5041256;28;20098;-71
2024/01/19 07:05:17;;;;;;;42.95;19.08;;;;;;;;;;5032962;28;20032;-71
2024/01/19 07:07:45;;;;;;;39.63;18.75;;;;;;;;;;5046518;28;20482;-71
2024/01/19 07:10:11;;;;;;;37.20;19.75;;;;;;;;;;5032964;28;20393;-71
2024/01/19 07:12:37;;;;;;;33.03;18.08;;;;;;;;;;5040453;28;20036;-71
2024/01/19 07:15:06;;;;;;;38.47;20.75;;;;;;;;;;5032432;28;20041;-71
2024/01/19 07:17:33;;;;;;;38.25;19.90;;;;;;;;;;5058003;28;20030;-70
2024/01/19 07:20:00;;;;;;;40.35;20.60;;;;;;;;;;5037197;28;20025;-71
2024/01/19 07:22:26;;;;;;;40.08;19.40;;;;;;;;;;5049308;28;20043;-71
2024/01/19 07:24:52;;;;;;;44.78;21.08;;;;;;;;;;5044457;28;20042;-71
2024/01/19 07:27:18;;;;;;;34.70;19.67;;;;;;;;;;5036505;28;20028;-71
2024/01/19 07:29:44;;;;;;;39.15;20.88;;;;;;;;;;5042555;28;20025;-72
2024/01/19 07:32:12;;;;;;;50.78;21.58;;;;;;;;;;5048453;28;20021;-71
2024/01/19 07:34:38;;;;;;;49.83;21.35;;;;;;;;;;5039298;28;20382;-71
2024/01/19 07:37:04;;;;;;;42.92;20.83;;;;;;;;;;5049737;28;20029;-71
2024/01/19 07:39:30;;;;;;;40.05;20.40;;;;;;;;;;5039303;28;20022;-71
2024/01/19 07:41:56;;;;;;;44.10;20.20;;;;;;;;;;5049196;28;20390;-71
2024/01/19 07:44:22;;;;;;;45.97;22.25;;;;;;;;;;5049832;28;20021;-71
2024/01/19 07:46:48;;;;;;;47.00;23.00;;;;;;;;;;5045858;28;20379;-71
2024/01/19 07:49:20;;;;;;;44.20;23.38;;;-2.60;99.90;;;;;;5039294;28;20339;-71
2024/01/19 07:51:47;;;;;;;56.35;27.10;;;-2.60;99.90;;;;;;5034144;28;20021;-71
2024/01/19 07:54:14;;;;;;;58.03;28.33;;;-2.70;99.90;;;;;;5044478;28;20095;-71
2024/01/19 07:56:40;;;;;;;56.08;28.50;;;-2.60;99.90;;;;;;5042176;28;20037;-71
2024/01/19 07:59:07;;;;;;;56.45;27.75;;;-2.60;99.90;;;;;;5040062;28;20021;-71
2024/01/19 08:01:33;;;;;;;59.95;28.55;;;-2.50;99.90;;;;;;5036965;28;20032;-71
2024/01/19 08:03:59;;;;;;;59.05;28.00;;;-2.40;99.90;;;;;;5045404;28;20060;-71
2024/01/19 08:06:24;;;;;;;56.08;27.95;;;-2.40;99.90;;;;;;5047448;28;20065;-75
2024/01/19 08:08:50;;;;;;;64.35;29.67;;;-2.20;99.90;;;;;;5038144;28;20108;-72
2024/01/19 08:11:16;;;;;;;51.78;26.70;;;-2.20;99.90;;;;;;5042778;28;20481;-72
2024/01/19 08:13:41;;;;;;;57.67;28.23;;;-2.20;99.90;;;;;;5052536;28;20104;-72
2024/01/19 08:16:07;;;;;;;52.00;25.85;;;-2.20;99.90;;;;;;5037060;28;20021;-72
2024/01/19 08:18:34;;;;;;;50.38;27.05;;;-2.00;99.90;;;;;;5031665;28;20053;-72
2024/01/19 08:21:03;;;;;;;52.15;25.23;;;-1.90;99.90;;;;;;5055504;28;20020;-71
2024/01/19 08:23:30;;;;;;;48.70;26.08;;;-1.80;99.90;;;;;;5040333;28;20029;-72
2024/01/19 08:25:55;;;;;;;44.63;23.38;;;-1.80;99.90;;;;;;5035721;28;20041;-71
2024/01/19 08:28:22;;;;;;;47.35;23.35;;;-1.80;99.90;;;;;;5038810;28;20079;-71
2024/01/19 08:30:48;;;;;;;42.85;23.48;;;-1.70;99.90;;;;;;5050251;28;20580;-70
2024/01/19 08:33:14;;;;;;;46.95;24.33;;;-1.70;99.90;;;;;;5038340;28;20041;-72
2024/01/19 08:35:39;;;;;;;48.80;23.48;;;-1.70;99.90;;;;;;5033418;28;20037;-73
2024/01/19 08:38:06;;;;;;;54.75;25.00;;;-1.70;99.90;;;;;;5043809;28;20103;-73
2024/01/19 08:40:34;;;;;;;47.05;26.08;;;-1.70;99.90;;;;;;5038790;28;20056;-73
2024/01/19 08:43:00;;;;;;;50.22;25.02;;;-1.70;99.90;;;;;;5046732;28;20040;-73
2024/01/19 08:45:28;;;;;;;50.92;25.02;;;-1.70;99.90;;;;;;5032720;28;20112;-72
2024/01/19 08:47:56;;;;;;;52.17;25.17;;;-1.80;99.90;;;;;;5041814;28;20120;-72
2024/01/19 08:50:28;;;;;;;55.65;25.00;;;-1.90;99.90;;;;;;5035840;28;20032;-72
2024/01/19 08:52:55;;;;;;;46.53;25.70;;;-1.90;99.90;;;;;;5046730;28;20048;-72
2024/01/19 08:55:21;;;;;;;50.97;24.85;;;-2.00;99.90;;;;;;5040434;28;20061;-73
2024/01/19 08:57:46;;;;;;;56.22;26.30;;;-2.00;99.90;;;;;;5039448;28;20204;-71
2024/01/19 09:00:13;;;;;;;57.47;26.65;;;-2.00;99.90;;;;;;5018362;28;20083;-71
2024/01/19 09:02:51;;;;;;;51.35;26.98;;;-1.90;99.90;;;;;;5056344;28;20033;-71
2024/01/19 09:05:17;;;;;;;60.33;27.48;;;-1.90;99.90;;;;;;5046113;28;20067;-71
2024/01/19 09:07:43;;;;;;;50.67;25.38;;;-1.80;99.90;;;;;;5038646;28;20518;-72
2024/01/19 09:10:08;;;;;;;50.33;25.48;;;-1.80;99.90;;;;;;5027611;28;20071;-70
2024/01/19 09:12:34;;;;;;;57.92;27.00;;;-1.70;99.90;;;;;;5043120;28;20409;-72
2024/01/19 09:15:00;;;;;;;57.22;26.15;;;-1.60;99.90;;;;;;5038026;28;20033;-70
2024/01/19 09:17:27;;;;;;;51.50;25.08;;;-1.40;99.90;;;;;;5044573;28;20033;-71
2024/01/19 09:19:53;;;;;;;46.25;22.98;;;-1.20;99.90;;;;;;5058898;28;20512;-72
2024/01/19 09:22:19;;;;;;;51.88;25.15;;;-1.10;99.90;;;;;;5041507;28;20013;-72
2024/01/19 09:24:44;;;;;;;48.15;23.90;;;-1.10;99.90;;;;;;5036308;28;20511;-72
2024/01/19 09:27:10;;;;;;;49.40;23.85;;;-1.00;99.90;;;;;;5042266;28;20033;-71
2024/01/19 09:29:36;;;;;;;46.85;23.30;;;-1.00;99.90;;;;;;5042271;28;20025;-72
2024/01/19 09:32:01;;;;;;;49.92;24.55;;;-0.90;99.90;;;;;;5048266;28;20029;-72
2024/01/19 09:34:28;;;;;;;50.97;26.48;;;-0.90;99.90;;;;;;5030669;28;20041;-72
2024/01/19 09:36:53;;;;;;;44.63;24.50;;;-0.90;99.90;;;;;;5044138;28;20066;-72
2024/01/19 09:39:21;;;;;;;47.03;24.10;;;-0.80;99.90;;;;;;5043017;28;20680;-72
2024/01/19 09:41:52;;;;;;;45.83;23.65;;;-0.80;99.90;;;;;;5057941;28;20017;-72
2024/01/19 09:44:29;;;;;;;50.10;23.98;;;-0.80;99.90;;;;;;5034197;28;20097;-71
2024/01/19 09:46:55;;;;;;;41.00;21.08;;;-0.70;99.90;;;;;;5049060;28;20770;-72
2024/01/19 09:49:48;;;;;;;41.53;23.33;;;-0.70;99.90;;;;;;5044429;28;20067;-72
2024/01/19 09:52:38;;;;;;;44.60;24.00;;;-0.60;99.90;;;;;;5035755;28;20398;-72
2024/01/19 09:55:04;;;;;;;49.50;24.05;;;-0.50;99.90;;;;;;5047525;28;20033;-72
2024/01/19 09:57:32;;;;;;;51.30;24.27;;;-0.40;99.90;;;;;;5040067;28;20494;-72
2024/01/19 09:59:57;;;;;;;52.78;24.90;;;-0.40;99.90;;;;;;5038684;28;20017;-71
2024/01/19 10:02:27;;;;;;;45.47;22.85;;;-0.40;99.90;;;;;;5043827;28;20499;-70
2024/01/19 10:04:53;;;;;;;48.80;23.88;;;-0.30;99.90;;;;;;5044724;28;20034;-72
2024/01/19 10:07:20;;;;;;;44.72;23.63;;;-0.30;99.90;;;;;;5038635;28;20037;-69
2024/01/19 10:09:50;;;;;;;45.63;23.60;;;-0.20;99.90;;;;;;5034813;28;20153;-70
2024/01/19 10:12:19;;;;;;;44.40;22.25;;;-0.20;99.90;;;;;;5040801;28;20078;-69
2024/01/19 10:14:44;;;;;;;44.88;23.02;;;-0.20;99.90;;;;;;5040751;28;20029;-70
2024/01/19 10:17:10;;;;;;;42.78;21.45;;;-0.10;99.90;;;;;;5046352;28;20074;-70
2024/01/19 10:19:37;;;;;;;42.33;22.40;;;-0.10;99.90;;;;;;5035360;28;20021;-70
2024/01/19 10:22:25;;;;;;;39.47;21.75;;;-0.10;99.90;;;;;;5039956;28;20017;-71
2024/01/19 10:25:02;;;;;;;45.65;21.50;;;-0.20;99.90;;;;;;5034318;28;20049;-71
2024/01/19 10:27:41;;;;;;;45.58;23.00;;;;;;;;;;5049009;28;20036;-71
2024/01/19 10:30:09;;;;;;;39.85;21.70;;;;;;;;;;5040521;28;20070;-71
2024/01/19 10:32:35;;;;;;;48.67;23.90;;;;;;;;;;5040912;28;20829;-71
2024/01/19 10:35:07;;;;;;;39.50;22.60;;;;;;;;;;5046079;28;20064;-71
2024/01/19 10:37:33;;;;;;;39.38;21.40;;;;;;;;;;5044370;28;20060;-71
2024/01/19 10:40:18;;;;;;;39.20;21.88;;;;;;;;;;5036551;28;20039;-71
2024/01/19 10:42:45;;;;;;;43.50;23.02;;;;;;;;;;5035762;28;20574;-71
2024/01/19 10:45:19;;;;;;;41.67;23.33;;;;;;;;;;5050165;28;20025;-72
2024/01/19 10:48:05;;;;;;;41.03;22.50;;;;;;;;;;5044710;28;20060;-73
2024/01/19 10:50:31;;;;;;;36.70;20.25;;;;;;;;;;5045850;28;20534;-70
2024/01/19 10:52:59;;;;;;;35.53;21.77;;;;;;;;;;5036339;28;20540;-73
2024/01/19 10:55:26;;;;;;;42.05;23.05;;;;;;;;;;5047623;28;20742;-73
2024/01/19 10:58:04;;;;;;;41.47;21.40;;;;;;;;;;5039906;28;20066;-72
2024/01/19 11:00:31;;;;;;;37.70;21.40;;;;;;;;;;5032600;28;20021;-73
2024/01/19 11:02:58;;;;;;;44.55;21.40;;;;;;;;;;5042741;28;20067;-72
2024/01/19 11:05:25;;;;;;;40.05;19.70;;;;;;;;;;5046355;28;20109;-72
2024/01/19 11:07:52;;;;;;;34.85;20.42;;;;;;;;;;5055531;28;20029;-75
2024/01/19 11:10:19;;;;;;;38.55;18.85;;;;;;;;;;5047501;28;20025;-74
2024/01/19 11:12:56;;;;;;;35.15;19.73;;;;;;;;;;5044517;28;20490;-75
2024/01/19 11:15:32;;;;;;;33.83;18.83;;;;;;;;;;5037774;28;20108;-72
2024/01/19 11:18:01;;;;;;;30.20;16.83;;;;;;;;;;5035072;28;20541;-73
2024/01/19 11:20:29;;;;;;;35.72;20.58;;;;;;;;;;5045854;28;20054;-73
2024/01/19 11:22:55;;;;;;;40.08;21.02;;;;;;;;;;5039620;28;20112;-73
2024/01/19 11:25:33;;;;;;;38.15;21.75;;;;;;;;;;5044943;28;20044;-73
2024/01/19 11:28:16;;;;;;;37.38;20.45;;;;;;;;;;5046733;28;20029;-72
2024/01/19 11:31:02;;;;;;;34.30;19.35;;;;;;;;;;5039094;28;20486;-72
2024/01/19 11:33:31;;;;;;;40.08;20.42;;;;;;;;;;5034658;28;20026;-73
2024/01/19 11:35:58;;;;;;;34.22;20.38;;;;;;;;;;5036159;28;20013;-73
2024/01/19 11:38:36;;;;;;;36.60;20.17;;;;;;;;;;5052600;28;20032;-74
2024/01/19 11:41:04;;;;;;;37.08;19.17;;;;;;;;;;5043228;28;20025;-74
2024/01/19 11:43:40;;;;;;;31.55;19.90;;;;;;;;;;5033922;28;20625;-74
2024/01/19 11:46:07;;;;;;;36.65;19.48;;;;;;;;;;5031087;28;20037;-73
2024/01/19 11:48:43;;;;;;;36.33;18.80;;;;;;;;;;5038038;28;20029;-74
2024/01/19 11:51:10;;;;;;;33.17;18.05;;;;;;;;;;5044617;28;20021;-72
2024/01/19 11:53:58;;;;;;;30.58;15.98;;;;;;;;;;5046169;28;20067;-81
2024/01/19 11:56:25;;;;;;;28.45;17.55;;;;;;;;;;5045483;28;20028;-87
2024/01/19 11:58:53;;;;;;;28.55;16.25;;;;;;;;;;5046493;28;20028;-79
2024/01/19 12:01:20;;;;;;;31.42;16.38;;;;;;;;;;5040838;28;20022;-86
2024/01/19 12:03:46;;;;;;;28.75;16.38;;;;;;;;;;5045421;28;20017;-84
2024/01/19 12:06:15;;;;;;;29.35;15.40;;;;;;;;;;5042550;28;20466;-80
2024/01/19 12:08:41;;;;;;;27.30;14.52;;;;;;;;;;5035345;28;20033;-77
2024/01/19 12:11:11;;;;;;;15.32;8.20;;;;;;;;;;5048603;28;20099;-76
2024/01/19 12:13:39;;;;;;;13.68;7.53;;;;;;;;;;5037579;28;20033;-76
2024/01/19 12:16:06;;;;;;;20.85;11.88;;;;;;;;;;5038543;28;20032;-76
2024/01/19 12:18:34;;;;;;;20.42;10.55;;;;;;;;;;5027964;28;20021;-75
2024/01/19 12:21:01;;;;;;;13.43;7.85;;;;;;;;;;5043147;28;20071;-76
2024/01/19 12:23:32;;;;;;;10.30;6.75;;;;;;;;;;5033034;28;20060;-76
2024/01/19 12:25:59;;;;;;;11.52;7.50;;;;;;;;;;5034226;28;20489;-75
2024/01/19 12:28:26;;;;;;;12.93;6.57;;;;;;;;;;5044795;28;20067;-76
2024/01/19 12:30:52;;;;;;;7.60;5.38;;;;;;;;;;5043989;28;20091;-75
2024/01/19 12:33:25;;;;;;;9.63;6.28;;;;;;;;;;5033075;28;20354;-75
2024/01/19 12:36:03;;;;;;;12.98;5.47;;;;;;;;;;5035851;28;20083;-76
2024/01/19 12:38:30;;;;;;;9.55;5.20;;;;;;;;;;5035786;28;20048;-75
2024/01/19 12:40:57;;;;;;;8.75;4.13;;;;;;;;;;5048636;28;20040;-74
2024/01/19 12:43:23;;;;;;;10.55;4.85;;;;;;;;;;5026564;28;20037;-76
2024/01/19 12:45:49;;;;;;;7.32;4.45;;;;;;;;;;5026271;28;20045;-76
2024/01/19 12:48:15;;;;;;;8.43;4.97;;;;;;;;;;5032735;28;20045;-76
2024/01/19 12:50:42;;;;;;;11.80;5.43;;;;;;;;;;5022597;28;20033;-74
2024/01/19 12:53:08;;;;;;;10.27;5.90;;;;;;;;;;5026103;28;20041;-76
2024/01/19 12:55:35;;;;;;;10.00;5.50;;;;;;;;;;5022964;28;20033;-76
2024/01/19 12:58:01;;;;;;;12.65;6.40;;;;;;;;;;5026014;28;20022;-73
2024/01/19 13:00:30;;;;;;;18.10;11.43;;;;;;;;;;5026024;28;20132;-73
2024/01/19 13:02:58;;;;;;;18.70;11.50;;;;;;;;;;5024912;28;20045;-73
2024/01/19 13:05:27;;;;;;;17.73;10.43;;;;;;;;;;5018850;28;20045;-73
2024/01/19 13:07:56;;;;;;;17.10;8.77;;;;;;;;;;5003240;28;20029;-73
2024/01/19 13:10:23;;;;;;;13.98;8.52;;;;;;;;;;5023667;28;20029;-72
2024/01/19 13:12:49;;;;;;;16.23;9.73;;;;;;;;;;5030208;28;20034;-74
2024/01/19 13:15:19;;;;;;;16.58;10.15;;;;;;;;;;5040248;28;20047;-74
2024/01/19 13:17:46;;;;;;;22.02;11.35;;;;;;;;;;5036437;28;20666;-74
2024/01/19 13:20:25;;;;;;;18.42;11.88;;;;;;;;;;5040177;28;20021;-74
2024/01/19 13:22:51;;;;;;;17.27;11.30;;;;;;;;;;5044200;28;20025;-74
2024/01/19 13:25:17;;;;;;;17.30;10.30;;;;;;;;;;5052370;28;20120;-74
2024/01/19 13:27:44;;;;;;;15.52;10.18;;;;;;;;;;5044440;28;20200;-74
2024/01/19 13:30:10;;;;;;;20.08;10.95;;;;;;;;;;5069810;28;20028;-73
2024/01/19 13:32:36;;;;;;;17.67;10.60;;;;;;;;;;5040734;28;20031;-76
2024/01/19 13:35:03;;;;;;;20.63;10.35;;;;;;;;;;5042928;28;20032;-75
2024/01/19 13:37:30;;;;;;;20.83;11.60;;;;;;;;;;5046943;28;20018;-75
2024/01/19 13:39:57;;;;;;;24.33;12.32;;;;;;;;;;5048669;28;20482;-75
2024/01/19 13:42:23;;;;;;;24.27;13.55;;;;;;;;;;5048894;28;20327;-74
2024/01/19 13:44:50;;;;;;;25.58;13.65;;;;;;;;;;5060305;28;20016;-75
2024/01/19 13:47:16;;;;;;;23.30;12.77;;;;;;;;;;5051508;28;20041;-76
2024/01/19 13:49:42;;;;;;;24.15;13.65;;;;;;;;;;5045669;28;20031;-75
2024/01/19 13:52:10;;;;;;;23.73;12.63;;;;;;;;;;5037451;28;20110;-75
2024/01/19 13:54:36;;;;;;;22.30;13.07;;;;;;;;;;5044515;28;20028;-76
2024/01/19 13:57:02;;;;;;;24.55;13.23;;;;;;;;;;5042444;28;20033;-75